Terminal Aerodrome Forecast
Issued by NWS

Current Version | Previous Version | Text Only | Print | Product List | Glossary On
Versions: 1 2 3 4 5 6 7 8 9 10 11 12
642
FTUS46 KLOX 071137
TAFPMD
TAF
KPMD 071137Z 0712/0812 VRB05KT P6SM SKC
     FM071400 32008KT P6SM SKC
     FM071700 06015G25KT P6SM SKC
     FM080400 06008KT P6SM SKC=

USA.gov is the U.S. government's official web portal to all federal, state and local government web resources and services.